Time;durP1;ratioP1;P1;durP2;ratioP2;P2;SDS_P1;SDS_P2;PMS_P1;PMS_P2;Temp;Humidity;BMP_temperature;BMP_pressure;BME280_temperature;BME280_humidity;BME280_pressure;Samples;Min_cycle;Max_cycle;Signal;HPM_P1;HPM_P2
2023/01/08 00:00:57;;;;;;;2.30;1.00;;;6.10;99.90;;;;;;5073278;28;20445;-85
2023/01/08 00:03:24;;;;;;;1.03;0.93;;;6.10;99.90;;;;;;5076489;28;20809;-85
2023/01/08 00:05:51;;;;;;;1.30;0.60;;;6.10;99.90;;;;;;5077077;28;20485;-85
2023/01/08 00:08:18;;;;;;;0.37;0.33;;;6.10;99.90;;;;;;5077170;28;20451;-85
2023/01/08 00:10:45;;;;;;;2.47;0.77;;;6.10;99.90;;;;;;5077164;28;20850;-85
2023/01/08 00:13:12;;;;;;;2.70;0.67;;;6.00;99.90;;;;;;5076986;28;20496;-85
2023/01/08 00:15:38;;;;;;;3.93;0.73;;;6.10;99.90;;;;;;5076996;28;20472;-85
2023/01/08 00:18:07;;;;;;;0.93;0.50;;;6.00;99.90;;;;;;5076649;28;20453;-85
2023/01/08 00:20:33;;;;;;;0.70;0.70;;;6.00;99.90;;;;;;5077104;28;20445;-85
2023/01/08 00:23:00;;;;;;;0.80;0.80;;;6.00;99.90;;;;;;5076958;28;20821;-85
2023/01/08 00:25:27;;;;;;;0.83;0.47;;;6.00;99.90;;;;;;5076463;28;20495;-85
2023/01/08 00:27:54;;;;;;;0.40;0.40;;;6.00;99.90;;;;;;5076897;28;20480;-85
2023/01/08 00:30:20;;;;;;;0.93;0.50;;;6.00;99.90;;;;;;5076559;28;20937;-85
2023/01/08 00:32:47;;;;;;;0.87;0.50;;;6.00;99.90;;;;;;5076467;28;20941;-85
2023/01/08 00:35:15;;;;;;;0.97;0.97;;;6.00;99.90;;;;;;5076755;28;20470;-85
2023/01/08 00:37:42;;;;;;;0.40;0.40;;;6.00;99.90;;;;;;5076633;28;20459;-85
2023/01/08 00:40:10;;;;;;;0.73;0.50;;;6.00;99.90;;;;;;5076618;28;20450;-85
2023/01/08 00:42:37;;;;;;;0.77;0.63;;;6.00;99.90;;;;;;5076212;28;20437;-85
2023/01/08 00:45:04;;;;;;;0.70;0.50;;;6.00;99.90;;;;;;5076424;28;20836;-85
2023/01/08 00:47:31;;;;;;;0.70;0.47;;;6.00;99.90;;;;;;5076565;28;20437;-85
2023/01/08 00:49:57;;;;;;;0.57;0.57;;;6.00;99.90;;;;;;5076647;28;20429;-85
2023/01/08 00:52:26;;;;;;;0.40;0.40;;;6.00;99.90;;;;;;5076396;28;20447;-85
2023/01/08 00:54:53;;;;;;;0.80;0.80;;;6.00;99.90;;;;;;5076405;28;20469;-85
2023/01/08 00:57:19;;;;;;;0.70;0.67;;;5.90;99.90;;;;;;5076391;28;20453;-85
2023/01/08 00:59:46;;;;;;;0.53;0.53;;;5.90;99.90;;;;;;5076282;28;20448;-85
2023/01/08 01:02:13;;;;;;;0.50;0.50;;;5.90;99.90;;;;;;5076298;28;20441;-85
2023/01/08 01:04:40;;;;;;;0.50;0.50;;;5.90;99.90;;;;;;5076022;28;21032;-85
2023/01/08 01:07:06;;;;;;;1.23;0.90;;;5.90;99.90;;;;;;5075882;28;21011;-86
2023/01/08 01:09:34;;;;;;;0.30;0.30;;;5.90;99.90;;;;;;5076073;28;20450;-85
2023/01/08 01:12:01;;;;;;;0.60;0.60;;;5.90;99.90;;;;;;5076214;28;20434;-85
2023/01/08 01:14:28;;;;;;;0.70;0.47;;;5.90;99.90;;;;;;5075006;28;20485;-85
2023/01/08 01:16:55;;;;;;;1.30;1.20;;;5.80;99.90;;;;;;5077851;28;21046;-84
2023/01/08 01:19:22;;;;;;;0.50;0.50;;;5.80;99.90;;;;;;5080362;28;20456;-85
2023/01/08 01:21:49;;;;;;;1.53;0.80;;;5.90;99.90;;;;;;5081521;28;20507;-85
2023/01/08 01:24:16;;;;;;;0.50;0.50;;;5.90;99.90;;;;;;5075838;28;20553;-85
2023/01/08 01:26:44;;;;;;;0.40;0.40;;;5.90;99.90;;;;;;5075633;28;20493;-85
2023/01/08 01:29:11;;;;;;;0.53;0.50;;;5.90;99.90;;;;;;5075854;28;20483;-86
2023/01/08 01:31:37;;;;;;;1.10;0.70;;;6.00;99.90;;;;;;5075682;28;20472;-85
2023/01/08 01:34:04;;;;;;;0.60;0.60;;;6.10;99.90;;;;;;5075406;28;20833;-85
2023/01/08 01:36:31;;;;;;;1.03;0.70;;;6.10;99.90;;;;;;5075627;28;20445;-85
2023/01/08 01:38:58;;;;;;;0.60;0.40;;;6.10;99.90;;;;;;5075388;28;20429;-85
2023/01/08 01:41:27;;;;;;;1.97;1.33;;;6.10;99.90;;;;;;5075219;28;20446;-85
2023/01/08 01:43:57;;;;;;;1.80;0.80;;;6.10;99.90;;;;;;5075420;28;20469;-85
2023/01/08 01:46:36;;;;;;;0.30;0.20;;;6.10;99.90;;;;;;5075344;28;20500;-86
2023/01/08 01:49:06;;;;;;;8.33;0.67;;;6.10;99.90;;;;;;5075113;28;20429;-85
2023/01/08 01:51:35;;;;;;;0.40;0.40;;;6.10;99.90;;;;;;5075180;28;20897;-86
2023/01/08 01:54:04;;;;;;;0.80;0.63;;;6.10;99.90;;;;;;5075336;28;20477;-85
2023/01/08 01:56:33;;;;;;;0.50;0.40;;;6.10;99.90;;;;;;5075365;28;20441;-85
2023/01/08 01:59:01;;;;;;;0.80;0.50;;;6.20;99.90;;;;;;5075156;28;20450;-85
2023/01/08 02:01:29;;;;;;;0.40;0.40;;;6.20;99.90;;;;;;5074942;28;20437;-85
2023/01/08 02:03:56;;;;;;;0.40;0.30;;;6.20;99.90;;;;;;5075006;28;20461;-85
2023/01/08 02:16:36;;;;;;;0.40;0.40;;;6.50;99.90;;;;;;5071470;28;20540;-86
2023/01/08 02:19:11;;;;;;;0.60;0.60;;;6.50;99.90;;;;;;5074827;28;20414;-85
2023/01/08 02:21:50;;;;;;;0.43;0.43;;;6.60;99.90;;;;;;5075311;28;20429;-86
2023/01/08 02:24:25;;;;;;;0.87;0.70;;;6.70;99.90;;;;;;5074697;28;20821;-85
2023/01/08 02:26:56;;;;;;;2.93;0.50;;;6.70;99.90;;;;;;5074573;28;20971;-85
2023/01/08 02:29:27;;;;;;;1.00;0.70;;;6.70;99.90;;;;;;5074573;28;20446;-85
2023/01/08 02:31:55;;;;;;;1.70;0.47;;;6.70;99.90;;;;;;5074852;28;20484;-85
2023/01/08 02:34:21;;;;;;;1.63;0.90;;;6.70;99.90;;;;;;5074074;28;20980;-85
2023/01/08 02:36:52;;;;;;;0.73;0.70;;;6.70;99.90;;;;;;5074472;28;20446;-85
2023/01/08 02:39:33;;;;;;;2.03;0.40;;;6.70;99.90;;;;;;5074376;28;20453;-85
2023/01/08 02:42:11;;;;;;;6.40;0.83;;;6.80;99.90;;;;;;5074008;28;20414;-86
2023/01/08 02:44:50;;;;;;;3.33;0.90;;;6.70;99.90;;;;;;5074133;28;20504;-85
2023/01/08 02:47:24;;;;;;;3.17;1.27;;;6.70;99.90;;;;;;5074214;28;20470;-85
2023/01/08 02:49:57;;;;;;;0.70;0.70;;;6.70;99.90;;;;;;5073902;28;20917;-85
2023/01/08 02:52:29;;;;;;;0.50;0.50;;;6.70;99.90;;;;;;5074215;28;20434;-85
2023/01/08 02:54:58;;;;;;;0.77;0.70;;;6.60;99.90;;;;;;5074040;28;20481;-85
2023/01/08 02:57:28;;;;;;;0.87;0.30;;;6.60;99.90;;;;;;5073975;28;20454;-85
2023/01/08 02:59:57;;;;;;;0.57;0.57;;;6.60;99.90;;;;;;5074026;28;20465;-85
2023/01/08 03:02:25;;;;;;;0.40;0.30;;;6.60;99.90;;;;;;5074139;28;20449;-85
2023/01/08 03:04:57;;;;;;;0.83;0.83;;;6.60;99.90;;;;;;5074087;28;20458;-85
2023/01/08 03:07:24;;;;;;;0.87;0.87;;;6.60;99.90;;;;;;5074099;28;20980;-85
2023/01/08 03:09:51;;;;;;;0.40;0.37;;;6.70;99.90;;;;;;5073616;28;20960;-85
2023/01/08 03:12:23;;;;;;;1.60;0.70;;;6.70;99.90;;;;;;5073827;28;20548;-85
2023/01/08 03:14:57;;;;;;;0.50;0.50;;;6.80;99.90;;;;;;5073474;28;20489;-85
2023/01/08 03:17:28;;;;;;;0.67;0.50;;;6.80;99.90;;;;;;5073940;28;20777;-85
2023/01/08 03:19:58;;;;;;;0.87;0.43;;;6.80;99.90;;;;;;5073763;28;20438;-85
2023/01/08 03:22:25;;;;;;;0.80;0.70;;;6.80;99.90;;;;;;5073715;28;20446;-85
2023/01/08 03:24:54;;;;;;;1.17;0.60;;;6.80;99.90;;;;;;5073588;28;20477;-85
2023/01/08 03:27:25;;;;;;;0.50;0.50;;;6.80;99.90;;;;;;5073526;28;21007;-85
2023/01/08 03:29:56;;;;;;;0.90;0.50;;;6.90;99.90;;;;;;5073957;28;20429;-85
2023/01/08 03:32:25;;;;;;;1.17;0.67;;;6.80;99.90;;;;;;5074275;28;20809;-86
2023/01/08 03:34:55;;;;;;;0.80;0.80;;;6.80;99.90;;;;;;5073599;28;20472;-85
2023/01/08 03:37:25;;;;;;;0.50;0.50;;;6.80;99.90;;;;;;5073109;28;20418;-85
2023/01/08 03:39:58;;;;;;;0.40;0.30;;;6.80;99.90;;;;;;5073878;28;20441;-85
2023/01/08 03:42:26;;;;;;;0.60;0.60;;;6.80;99.90;;;;;;5073702;28;20437;-86
2023/01/08 03:44:54;;;;;;;2.13;0.90;;;6.70;99.90;;;;;;5073494;28;20981;-85
2023/01/08 03:47:23;;;;;;;1.33;0.70;;;6.70;99.90;;;;;;5073730;28;20488;-85
2023/01/08 03:49:52;;;;;;;0.53;0.50;;;6.70;99.90;;;;;;5074838;28;20452;-85
2023/01/08 03:52:23;;;;;;;0.40;0.30;;;6.80;99.90;;;;;;5074824;28;20446;-86
2023/01/08 03:54:50;;;;;;;0.50;0.50;;;6.70;99.90;;;;;;5074098;28;20839;-85
2023/01/08 03:57:16;;;;;;;1.67;0.90;;;6.70;99.90;;;;;;5073619;28;20438;-85
2023/01/08 03:59:43;;;;;;;2.70;0.50;;;6.70;99.90;;;;;;5073356;28;20446;-85
2023/01/08 04:02:11;;;;;;;2.00;0.67;;;6.70;99.90;;;;;;5073312;28;20445;-85
2023/01/08 04:04:38;;;;;;;1.23;0.60;;;6.70;99.90;;;;;;5073188;28;20477;-85
2023/01/08 04:07:06;;;;;;;1.63;0.50;;;6.70;99.90;;;;;;5073239;28;20999;-85
2023/01/08 04:09:32;;;;;;;1.07;0.70;;;6.80;99.90;;;;;;5073050;28;20794;-86
2023/01/08 04:11:59;;;;;;;1.60;0.83;;;6.80;99.90;;;;;;5073176;28;20449;-85
2023/01/08 04:14:26;;;;;;;0.40;0.40;;;6.90;99.90;;;;;;5072970;28;20468;-85
2023/01/08 04:16:52;;;;;;;2.23;0.50;;;6.90;99.90;;;;;;5073234;28;20920;-84
2023/01/08 04:19:20;;;;;;;0.70;0.70;;;6.90;99.90;;;;;;5073275;28;20453;-85
2023/01/08 04:21:50;;;;;;;0.93;0.93;;;6.90;99.90;;;;;;5073096;28;20445;-85
2023/01/08 04:24:16;;;;;;;0.40;0.40;;;7.00;99.90;;;;;;5073020;28;20466;-85
2023/01/08 04:26:43;;;;;;;0.77;0.77;;;7.00;99.90;;;;;;5072964;28;20485;-85
2023/01/08 04:29:11;;;;;;;0.40;0.30;;;7.00;99.90;;;;;;5073145;28;20449;-85
2023/01/08 04:31:38;;;;;;;1.07;0.90;;;7.00;99.90;;;;;;5072735;28;20992;-85
2023/01/08 04:34:05;;;;;;;1.77;0.80;;;7.00;99.90;;;;;;5072866;28;20476;-86
2023/01/08 04:36:33;;;;;;;0.40;0.40;;;7.00;99.90;;;;;;5072997;28;20472;-85
2023/01/08 04:39:00;;;;;;;0.87;0.87;;;7.10;99.90;;;;;;5072661;28;20929;-86
2023/01/08 04:41:26;;;;;;;0.70;0.57;;;7.10;99.90;;;;;;5073043;28;20453;-85
2023/01/08 04:43:53;;;;;;;0.73;0.40;;;7.10;99.90;;;;;;5072901;28;20956;-85
2023/01/08 04:46:20;;;;;;;0.73;0.73;;;7.10;99.90;;;;;;5073020;28;20452;-85
2023/01/08 04:48:47;;;;;;;1.33;0.60;;;7.20;99.90;;;;;;5074457;28;20453;-85
2023/01/08 04:51:13;;;;;;;0.60;0.40;;;7.20;99.90;;;;;;5076472;28;20456;-86
2023/01/08 04:53:41;;;;;;;0.40;0.30;;;7.30;99.90;;;;;;5076314;28;20453;-85
2023/01/08 04:56:10;;;;;;;0.40;0.30;;;7.40;99.90;;;;;;5076416;28;20468;-86
2023/01/08 04:58:38;;;;;;;0.30;0.30;;;7.40;99.90;;;;;;5076699;28;20441;-86
2023/01/08 05:01:11;;;;;;;0.73;0.40;;;7.40;99.90;;;;;;5076391;28;20453;-85
2023/01/08 05:03:37;;;;;;;0.50;0.50;;;7.50;99.90;;;;;;5075945;28;20449;-85
2023/01/08 05:06:05;;;;;;;0.40;0.40;;;7.40;99.90;;;;;;5076242;28;20848;-85
2023/01/08 05:08:32;;;;;;;0.67;0.40;;;7.40;99.90;;;;;;5076127;28;20488;-85
2023/01/08 05:11:01;;;;;;;0.50;0.40;;;7.40;99.90;;;;;;5075798;28;20941;-84
2023/01/08 05:13:27;;;;;;;0.60;0.37;;;7.40;99.90;;;;;;5075811;28;20785;-85
2023/01/08 05:15:55;;;;;;;1.33;0.50;;;7.50;99.90;;;;;;5075823;28;20492;-85
2023/01/08 05:18:21;;;;;;;0.60;0.50;;;7.50;99.90;;;;;;5075648;28;20963;-85
2023/01/08 05:20:48;;;;;;;0.73;0.43;;;7.50;99.90;;;;;;5075956;28;20454;-85
2023/01/08 05:23:15;;;;;;;0.40;0.30;;;7.50;99.90;;;;;;5075849;28;20453;-85
2023/01/08 05:25:42;;;;;;;0.37;0.30;;;7.50;99.90;;;;;;5075601;28;20454;-85
2023/01/08 05:28:10;;;;;;;0.60;0.30;;;7.60;99.90;;;;;;5075740;28;20481;-85
2023/01/08 05:30:37;;;;;;;0.30;0.30;;;7.60;99.90;;;;;;5075785;28;20456;-85
2023/01/08 05:33:04;;;;;;;0.30;0.30;;;7.60;99.90;;;;;;5075513;28;20460;-84
2023/01/08 05:35:30;;;;;;;0.70;0.40;;;7.60;99.90;;;;;;5075411;28;21011;-84
2023/01/08 05:37:59;;;;;;;0.30;0.30;;;7.60;99.90;;;;;;5075643;28;20450;-85
2023/01/08 05:40:26;;;;;;;0.40;0.30;;;7.60;99.90;;;;;;5075600;28;20469;-85
2023/01/08 05:42:53;;;;;;;2.20;0.53;;;7.60;99.90;;;;;;5075227;28;21054;-84
2023/01/08 05:45:21;;;;;;;0.30;0.30;;;7.60;99.90;;;;;;5075451;28;20496;-84
2023/01/08 05:47:47;;;;;;;0.50;0.30;;;7.50;99.90;;;;;;5075086;28;20485;-85
2023/01/08 05:50:14;;;;;;;0.37;0.30;;;7.50;99.90;;;;;;5075343;28;20446;-85
2023/01/08 05:52:41;;;;;;;0.83;0.57;;;7.40;99.90;;;;;;5075109;28;20464;-85
2023/01/08 05:55:08;;;;;;;0.30;0.30;;;7.40;99.90;;;;;;5075016;28;20458;-86
2023/01/08 05:57:35;;;;;;;0.30;0.30;;;7.30;99.90;;;;;;5075809;28;20453;-86
2023/01/08 06:00:02;;;;;;;0.30;0.20;;;7.40;99.90;;;;;;5074591;28;20445;-86
2023/01/08 06:02:30;;;;;;;0.60;0.50;;;7.40;99.90;;;;;;5075308;28;20445;-85
2023/01/08 06:04:57;;;;;;;0.30;0.30;;;7.40;99.90;;;;;;5074782;28;21001;-85
2023/01/08 06:07:23;;;;;;;0.30;0.30;;;7.30;99.90;;;;;;5075193;28;20477;-85
2023/01/08 06:09:50;;;;;;;0.30;0.20;;;7.30;99.90;;;;;;5075099;28;20454;-86
2023/01/08 06:12:17;;;;;;;0.30;0.30;;;7.30;99.90;;;;;;5075068;28;20496;-86
2023/01/08 06:14:43;;;;;;;0.40;0.30;;;7.30;99.90;;;;;;5074696;28;20493;-85
2023/01/08 06:17:10;;;;;;;2.43;0.40;;;7.30;99.90;;;;;;5074745;28;20426;-85
2023/01/08 06:19:39;;;;;;;0.30;0.30;;;7.30;99.90;;;;;;5074909;28;20834;-85
2023/01/08 06:22:05;;;;;;;0.30;0.30;;;7.30;99.90;;;;;;5074543;28;20530;-85
2023/01/08 06:24:32;;;;;;;0.40;0.30;;;7.30;99.90;;;;;;5074504;28;20473;-85
2023/01/08 06:26:59;;;;;;;1.50;0.40;;;7.40;99.90;;;;;;5074723;28;20445;-85
2023/01/08 06:29:25;;;;;;;0.30;0.30;;;7.40;99.90;;;;;;5076945;28;20449;-85
2023/01/08 06:31:52;;;;;;;0.40;0.30;;;7.40;99.90;;;;;;5083890;28;20449;-85
2023/01/08 06:34:19;;;;;;;0.40;0.30;;;7.50;99.90;;;;;;5084119;28;20461;-86
2023/01/08 06:36:47;;;;;;;0.37;0.30;;;7.50;99.90;;;;;;5083225;28;20446;-85
2023/01/08 06:39:13;;;;;;;0.30;0.20;;;7.40;99.90;;;;;;5076150;28;20940;-85
2023/01/08 06:41:40;;;;;;;1.43;0.40;;;7.50;99.90;;;;;;5074716;28;20449;-86
2023/01/08 06:44:07;;;;;;;0.80;0.80;;;7.40;99.90;;;;;;5074517;28;20472;-85
2023/01/08 06:46:37;;;;;;;0.40;0.30;;;7.40;99.90;;;;;;5074314;28;20445;-86
2023/01/08 06:49:03;;;;;;;0.40;0.30;;;7.40;99.90;;;;;;5074535;28;20580;-86
2023/01/08 06:51:30;;;;;;;0.70;0.40;;;7.30;99.90;;;;;;5074492;28;20449;-86
2023/01/08 06:53:58;;;;;;;0.40;0.33;;;7.20;99.90;;;;;;5074049;28;20863;-85
2023/01/08 06:56:25;;;;;;;1.90;0.37;;;7.30;99.90;;;;;;5074040;28;20450;-85
2023/01/08 06:58:52;;;;;;;0.30;0.20;;;7.20;99.90;;;;;;5074100;28;20445;-85
2023/01/08 07:01:18;;;;;;;0.30;0.30;;;7.10;99.90;;;;;;5074191;28;20452;-85
2023/01/08 07:03:45;;;;;;;0.40;0.40;;;7.10;99.90;;;;;;5074072;28;20453;-85
2023/01/08 07:06:15;;;;;;;0.40;0.30;;;7.10;99.90;;;;;;5073959;28;20548;-86
2023/01/08 07:08:41;;;;;;;0.30;0.30;;;7.10;99.90;;;;;;5074119;28;20568;-85
2023/01/08 07:11:10;;;;;;;0.60;0.53;;;7.10;99.90;;;;;;5073584;28;20453;-85
2023/01/08 07:13:37;;;;;;;0.30;0.30;;;7.10;99.90;;;;;;5073981;28;20964;-86
2023/01/08 07:16:07;;;;;;;0.40;0.40;;;7.00;99.90;;;;;;5073864;28;20584;-85
2023/01/08 07:18:34;;;;;;;0.30;0.30;;;7.00;99.90;;;;;;5074309;28;20497;-85
2023/01/08 07:21:01;;;;;;;0.40;0.33;;;7.00;99.90;;;;;;5074127;28;20449;-85
2023/01/08 07:23:28;;;;;;;0.60;0.30;;;7.00;99.90;;;;;;5074412;28;20445;-85
2023/01/08 07:25:55;;;;;;;0.70;0.30;;;7.00;99.90;;;;;;5074304;28;20465;-85
2023/01/08 07:28:23;;;;;;;0.30;0.30;;;7.00;99.90;;;;;;5074228;28;20481;-85
2023/01/08 07:30:50;;;;;;;0.40;0.30;;;7.00;99.90;;;;;;5074058;28;20437;-86
2023/01/08 07:33:16;;;;;;;0.30;0.30;;;7.00;99.90;;;;;;5073948;28;20449;-86
2023/01/08 07:35:43;;;;;;;1.37;0.43;;;6.90;99.90;;;;;;5073751;28;20999;-86
2023/01/08 07:38:10;;;;;;;0.30;0.20;;;6.90;99.90;;;;;;5074230;28;20468;-87
2023/01/08 07:40:36;;;;;;;0.50;0.50;;;6.90;99.90;;;;;;5074356;28;20461;-87
2023/01/08 07:43:05;;;;;;;0.30;0.30;;;6.90;99.90;;;;;;5074046;28;20452;-86
2023/01/08 07:45:33;;;;;;;0.30;0.20;;;6.80;99.90;;;;;;5073867;28;20473;-86
2023/01/08 07:48:00;;;;;;;0.30;0.30;;;6.70;99.90;;;;;;5074078;28;20479;-87
2023/01/08 07:50:27;;;;;;;0.30;0.20;;;6.80;99.90;;;;;;5074322;28;20446;-86
2023/01/08 07:52:57;;;;;;;0.30;0.30;;;6.70;99.90;;;;;;5074250;28;20456;-87
2023/01/08 07:55:24;;;;;;;0.30;0.30;;;6.80;99.90;;;;;;5074512;28;20480;-87
2023/01/08 07:57:50;;;;;;;0.30;0.30;;;6.70;99.90;;;;;;5074491;28;20437;-87
2023/01/08 08:00:18;;;;;;;0.30;0.20;;;6.70;99.90;;;;;;5074044;28;20452;-87
2023/01/08 08:02:46;;;;;;;0.30;0.30;;;6.70;99.90;;;;;;5074206;28;20456;-87
2023/01/08 08:05:12;;;;;;;0.73;0.30;;;6.70;99.90;;;;;;5074105;28;20470;-87
2023/01/08 08:07:39;;;;;;;0.30;0.30;;;6.70;99.90;;;;;;5073414;28;20453;-87
2023/01/08 08:10:07;;;;;;;1.23;0.40;;;6.70;99.90;;;;;;5073522;28;20963;-87
2023/01/08 08:12:33;;;;;;;0.30;0.30;;;6.60;99.90;;;;;;5073973;28;20933;-87
2023/01/08 08:15:00;;;;;;;0.30;0.20;;;6.60;99.90;;;;;;5074185;28;20477;-88
2023/01/08 08:17:27;;;;;;;0.50;0.30;;;6.70;99.90;;;;;;5074035;28;20450;-88
2023/01/08 08:19:55;;;;;;;0.40;0.30;;;6.70;99.90;;;;;;5073791;28;20453;-88
2023/01/08 08:22:21;;;;;;;0.30;0.20;;;6.70;99.90;;;;;;5073325;28;20434;-87
2023/01/08 08:24:48;;;;;;;0.30;0.30;;;6.70;99.90;;;;;;5076899;28;20519;-87
2023/01/08 08:27:15;;;;;;;0.30;0.30;;;6.80;99.90;;;;;;5077564;28;20449;-88
2023/01/08 08:29:41;;;;;;;0.40;0.30;;;6.70;99.90;;;;;;5077305;28;20484;-87
2023/01/08 08:32:08;;;;;;;0.30;0.30;;;6.60;99.90;;;;;;5077354;28;20460;-87
2023/01/08 08:34:35;;;;;;;0.30;0.20;;;6.70;99.90;;;;;;5077063;28;20449;-88
2023/01/08 08:37:03;;;;;;;0.30;0.30;;;6.70;99.90;;;;;;5077737;28;20866;-86
2023/01/08 08:39:30;;;;;;;0.30;0.30;;;6.80;99.90;;;;;;5077452;28;20441;-86
2023/01/08 08:41:56;;;;;;;0.30;0.20;;;6.80;99.90;;;;;;5077640;28;20445;-86
2023/01/08 08:44:23;;;;;;;0.30;0.30;;;6.80;99.90;;;;;;5076891;28;20476;-86
2023/01/08 08:46:50;;;;;;;0.30;0.20;;;6.90;99.90;;;;;;5077208;28;20468;-86
2023/01/08 08:49:16;;;;;;;0.40;0.30;;;6.90;99.90;;;;;;5076857;28;20476;-87
2023/01/08 08:51:43;;;;;;;0.30;0.30;;;6.90;99.90;;;;;;5076718;28;20967;-86
2023/01/08 08:54:11;;;;;;;0.30;0.30;;;6.90;99.90;;;;;;5077019;28;20469;-87
2023/01/08 08:56:38;;;;;;;0.37;0.30;;;6.90;99.90;;;;;;5076962;28;20446;-88
2023/01/08 08:59:05;;;;;;;0.47;0.47;;;6.90;99.90;;;;;;5076697;28;20449;-87
2023/01/08 09:01:32;;;;;;;0.30;0.30;;;6.90;99.90;;;;;;5077084;28;20449;-87
2023/01/08 09:03:58;;;;;;;0.30;0.30;;;6.90;99.90;;;;;;5076780;28;20466;-86
2023/01/08 09:06:26;;;;;;;0.30;0.30;;;6.90;99.90;;;;;;5076883;28;20475;-86
2023/01/08 09:08:54;;;;;;;0.40;0.40;;;6.90;99.90;;;;;;5076660;28;20488;-86
2023/01/08 09:11:22;;;;;;;0.50;0.33;;;6.90;99.90;;;;;;5076510;28;20469;-86
2023/01/08 09:13:48;;;;;;;0.30;0.30;;;6.90;99.90;;;;;;5076741;28;20437;-86
2023/01/08 09:16:15;;;;;;;5.97;0.50;;;6.90;99.90;;;;;;5076432;28;20500;-87
2023/01/08 09:18:43;;;;;;;0.30;0.30;;;7.00;99.90;;;;;;5076660;28;20456;-87
2023/01/08 09:21:10;;;;;;;0.73;0.30;;;7.00;99.90;;;;;;5076716;28;20438;-86
2023/01/08 09:23:37;;;;;;;0.30;0.30;;;6.90;99.90;;;;;;5076454;28;20449;-86
2023/01/08 09:26:05;;;;;;;0.30;0.27;;;6.90;99.90;;;;;;5076480;28;20475;-86
2023/01/08 09:28:33;;;;;;;0.30;0.30;;;7.00;99.90;;;;;;5076496;28;20508;-85
2023/01/08 09:31:02;;;;;;;0.40;0.30;;;6.90;99.90;;;;;;5076233;28;20453;-85
2023/01/08 09:33:28;;;;;;;0.37;0.30;;;6.90;99.90;;;;;;5075902;28;20491;-86
2023/01/08 09:35:55;;;;;;;0.30;0.30;;;6.80;99.90;;;;;;5074772;28;20484;-85
2023/01/08 09:38:22;;;;;;;0.30;0.20;;;6.90;99.90;;;;;;5076845;28;20809;-85
2023/01/08 09:40:55;;;;;;;0.67;0.40;;;6.90;99.90;;;;;;5075989;28;20448;-85
2023/01/08 09:43:24;;;;;;;0.63;0.63;;;6.90;99.90;;;;;;5076438;28;20483;-85
2023/01/08 09:45:55;;;;;;;0.30;0.30;;;6.90;99.90;;;;;;5075927;28;20465;-85
2023/01/08 09:48:26;;;;;;;0.37;0.27;;;7.10;99.90;;;;;;5075598;28;20470;-85
2023/01/08 09:50:52;;;;;;;0.40;0.30;;;7.10;99.90;;;;;;5075629;28;20438;-85
2023/01/08 09:53:19;;;;;;;0.40;0.30;;;7.10;99.90;;;;;;5075637;28;20449;-85
2023/01/08 09:55:52;;;;;;;5.90;0.40;;;7.10;99.90;;;;;;5075539;28;20833;-85
2023/01/08 09:58:27;;;;;;;0.40;0.30;;;7.10;99.90;;;;;;5075531;28;20415;-85
2023/01/08 10:00:56;;;;;;;0.30;0.30;;;7.10;99.90;;;;;;5075768;28;20433;-85
2023/01/08 10:03:28;;;;;;;0.30;0.30;;;7.20;99.90;;;;;;5075763;28;20448;-84
2023/01/08 10:05:56;;;;;;;0.63;0.37;;;7.20;99.90;;;;;;5076096;28;20473;-85
2023/01/08 10:08:22;;;;;;;0.40;0.30;;;7.30;99.90;;;;;;5089484;28;20493;-83
2023/01/08 10:10:49;;;;;;;0.30;0.30;;;7.30;99.90;;;;;;5093394;28;20450;-83
2023/01/08 10:13:16;;;;;;;0.30;0.30;;;7.30;99.90;;;;;;5093106;28;20441;-84
2023/01/08 10:15:43;;;;;;;0.30;0.30;;;7.30;99.90;;;;;;5080435;28;20485;-85
2023/01/08 10:18:15;;;;;;;0.30;0.20;;;7.30;99.90;;;;;;5076244;28;20449;-85
2023/01/08 10:20:41;;;;;;;0.30;0.30;;;7.40;99.90;;;;;;5075149;28;20452;-85
2023/01/08 10:23:10;;;;;;;0.40;0.30;;;7.50;99.90;;;;;;5074792;28;20457;-85
2023/01/08 10:25:49;;;;;;;0.30;0.30;;;7.50;99.90;;;;;;5074793;28;20462;-85
2023/01/08 10:28:20;;;;;;;0.30;0.30;;;7.50;99.90;;;;;;5074734;28;20435;-85
2023/01/08 10:30:47;;;;;;;0.40;0.40;;;7.50;99.90;;;;;;5074524;28;20910;-85
2023/01/08 10:33:20;;;;;;;0.30;0.20;;;7.50;99.90;;;;;;5074733;28;20464;-85
2023/01/08 10:35:55;;;;;;;0.30;0.20;;;7.60;99.90;;;;;;5074998;28;20484;-85
2023/01/08 10:38:41;;;;;;;0.30;0.20;;;7.70;99.90;;;;;;5074668;28;20453;-84
2023/01/08 10:41:12;;;;;;;0.30;0.30;;;7.80;99.90;;;;;;5055585;28;20442;-84
2023/01/08 10:43:50;;;;;;;0.40;0.30;;;7.80;99.90;;;;;;5074706;28;20438;-84
2023/01/08 10:49:32;;;;;;;0.30;0.30;;;8.00;99.90;;;;;;5072795;28;20474;-83
2023/01/08 10:52:01;;;;;;;0.30;0.30;;;8.00;99.90;;;;;;5074659;28;20449;-84
2023/01/08 10:54:37;;;;;;;0.43;0.40;;;8.10;99.90;;;;;;5073626;28;20474;-84
2023/01/08 11:00:23;;;;;;;0.30;0.20;;;8.30;99.90;;;;;;5073762;28;20468;-84
2023/01/08 11:08:24;;;;;;;0.30;0.30;;;8.70;99.90;;;;;;5070497;28;20453;-83
2023/01/08 11:10:57;;;;;;;0.30;0.20;;;8.80;99.90;;;;;;5073438;28;20982;-83
2023/01/08 11:13:26;;;;;;;0.77;0.50;;;8.80;99.90;;;;;;5073921;28;20450;-85
2023/01/08 11:16:03;;;;;;;0.33;0.30;;;8.90;99.90;;;;;;5072878;28;20489;-83
2023/01/08 11:18:35;;;;;;;0.60;0.40;;;8.80;99.90;;;;;;5073507;28;20463;-83
2023/01/08 11:21:10;;;;;;;0.40;0.30;;;8.90;99.90;;;;;;5073746;28;20948;-84
2023/01/08 11:23:37;;;;;;;0.40;0.40;;;8.90;99.90;;;;;;5073498;28;20476;-83
2023/01/08 11:26:08;;;;;;;0.30;0.30;;;8.90;99.90;;;;;;5073557;28;20453;-83
2023/01/08 11:28:45;;;;;;;0.60;0.30;;;8.90;99.90;;;;;;5073280;28;20469;-83
2023/01/08 11:31:17;;;;;;;0.30;0.30;;;9.00;99.90;;;;;;5073519;28;20440;-84
2023/01/08 11:33:47;;;;;;;0.47;0.40;;;9.00;99.90;;;;;;5073186;28;20889;-83
2023/01/08 11:36:22;;;;;;;0.33;0.27;;;9.00;99.90;;;;;;5073267;28;20446;-83
2023/01/08 11:38:49;;;;;;;0.30;0.30;;;9.10;99.90;;;;;;5073461;28;20436;-83
2023/01/08 11:41:38;;;;;;;0.30;0.30;;;9.20;99.90;;;;;;5073344;28;20457;-83
2023/01/08 11:44:24;;;;;;;0.30;0.20;;;9.30;99.90;;;;;;5073583;28;20461;-83
2023/01/08 11:47:01;;;;;;;0.30;0.27;;;9.30;99.90;;;;;;5073406;28;20444;-84
2023/01/08 11:49:43;;;;;;;0.30;0.30;;;9.40;99.90;;;;;;5073292;28;20477;-83
2023/01/08 11:52:23;;;;;;;2.30;0.47;;;9.40;99.90;;;;;;5073306;28;20445;-83
2023/01/08 11:55:13;;;;;;;0.40;0.30;;;9.40;99.90;;;;;;5073224;28;20473;-83
2023/01/08 11:57:53;;;;;;;0.30;0.30;;;9.40;99.90;;;;;;5073159;28;20439;-83
2023/01/08 12:00:37;;;;;;;0.30;0.30;;;9.50;99.90;;;;;;5077523;28;20434;-83
2023/01/08 12:03:16;;;;;;;0.30;0.20;;;9.50;99.90;;;;;;5077082;28;20807;-83
2023/01/08 12:05:47;;;;;;;0.63;0.63;;;9.50;99.90;;;;;;5077047;28;20454;-83
2023/01/08 12:08:27;;;;;;;0.40;0.30;;;9.50;99.90;;;;;;5077356;28;20441;-83
2023/01/08 12:11:04;;;;;;;0.40;0.37;;;9.40;99.90;;;;;;5076883;28;20984;-83
2023/01/08 12:13:49;;;;;;;0.30;0.20;;;9.50;99.90;;;;;;5076874;28;20503;-83
2023/01/08 12:16:30;;;;;;;0.30;0.20;;;9.40;99.90;;;;;;5076799;28;20477;-76
2023/01/08 12:19:13;;;;;;;0.30;0.27;;;9.40;99.90;;;;;;5077046;28;20436;-76
2023/01/08 12:21:53;;;;;;;0.30;0.30;;;9.40;99.90;;;;;;5077020;28;20490;-76
2023/01/08 12:24:48;;;;;;;0.30;0.30;;;9.40;99.90;;;;;;5076554;28;20992;-76
2023/01/08 12:27:25;;;;;;;0.30;0.30;;;9.60;99.90;;;;;;5076919;28;20433;-76
2023/01/08 12:30:02;;;;;;;0.30;0.30;;;9.60;99.90;;;;;;5076332;28;20468;-76
2023/01/08 12:32:35;;;;;;;0.40;0.30;;;9.60;99.90;;;;;;5076822;28;20429;-76
2023/01/08 12:35:08;;;;;;;0.40;0.30;;;9.60;99.90;;;;;;5076665;28;20470;-77
2023/01/08 12:37:42;;;;;;;0.30;0.30;;;9.70;99.90;;;;;;5076420;28;20843;-77
2023/01/08 12:40:17;;;;;;;0.97;0.30;;;9.60;99.90;;;;;;5076722;28;20478;-77
2023/01/08 12:42:45;;;;;;;0.40;0.30;;;9.70;99.90;;;;;;5076637;28;20425;-76
2023/01/08 12:45:20;;;;;;;0.60;0.30;;;9.60;99.90;;;;;;5076056;28;20972;-76
2023/01/08 12:47:52;;;;;;;0.40;0.30;;;9.60;99.90;;;;;;5076502;28;20437;-76
2023/01/08 12:50:33;;;;;;;4.67;0.67;;;9.60;99.90;;;;;;5076368;28;20465;-76
2023/01/08 12:53:03;;;;;;;0.30;0.30;;;9.60;99.90;;;;;;5076066;28;20928;-77
2023/01/08 12:55:41;;;;;;;0.30;0.20;;;9.60;99.90;;;;;;5076326;28;20480;-77
2023/01/08 12:58:23;;;;;;;0.40;0.30;;;9.60;99.90;;;;;;5076754;28;20842;-77
2023/01/08 13:00:58;;;;;;;0.30;0.30;;;9.60;99.90;;;;;;5076529;28;20823;-77
2023/01/08 13:03:28;;;;;;;0.40;0.30;;;9.60;99.90;;;;;;5075965;28;20921;-76
2023/01/08 13:06:07;;;;;;;0.40;0.30;;;9.60;99.90;;;;;;5076033;28;20870;-76
2023/01/08 13:08:36;;;;;;;0.30;0.20;;;9.60;99.90;;;;;;5075987;28;20521;-77
2023/01/08 13:11:06;;;;;;;0.30;0.30;;;9.50;99.90;;;;;;5075691;28;20492;-76
2023/01/08 13:13:34;;;;;;;0.40;0.37;;;9.50;99.90;;;;;;5076815;28;20438;-76
2023/01/08 13:16:17;;;;;;;0.40;0.30;;;9.50;99.90;;;;;;5075602;28;21062;-76
2023/01/08 13:18:55;;;;;;;0.30;0.30;;;9.50;99.90;;;;;;5075878;28;20426;-77
2023/01/08 13:21:34;;;;;;;0.60;0.30;;;9.40;99.90;;;;;;5075900;28;20433;-77
2023/01/08 13:24:07;;;;;;;0.30;0.30;;;9.40;99.90;;;;;;5076135;28;20469;-76
2023/01/08 13:26:36;;;;;;;0.53;0.30;;;9.40;99.90;;;;;;5075437;28;20470;-76
2023/01/08 13:29:22;;;;;;;0.30;0.20;;;9.40;99.90;;;;;;5075758;28;20449;-76
2023/01/08 13:31:49;;;;;;;0.40;0.30;;;9.40;99.90;;;;;;5075452;28;20433;-77